Time;durP1;ratioP1;P1;durP2;ratioP2;P2;SDS_P1;SDS_P2;PMS_P1;PMS_P2;Temp;Humidity;BMP_temperature;BMP_pressure;BME280_temperature;BME280_humidity;BME280_pressure;Samples;Min_cycle;Max_cycle;Signal;HPM_P1;HPM_P2
2021/06/20 00:00:18;;;;;;;8.63;7.88;;;;;;;16.56;78.69;93323.47;5110293;28;20077;-44
2021/06/20 00:02:44;;;;;;;8.55;7.93;;;;;;;16.59;78.45;93336.19;5107605;28;20610;-43
2021/06/20 00:05:13;;;;;;;7.97;7.20;;;;;;;16.59;77.86;93336.19;5100485;28;20020;-43
2021/06/20 00:07:43;;;;;;;6.90;6.30;;;;;;;16.58;76.97;93317.28;5096862;28;20050;-43
2021/06/20 00:10:09;;;;;;;7.28;6.57;;;;;;;16.54;77.01;93326.09;5100003;28;20030;-43
2021/06/20 00:12:39;;;;;;;7.13;6.53;;;;;;;16.60;76.54;93332.09;5097744;28;20055;-45
2021/06/20 00:15:07;;;;;;;8.18;7.65;;;;;;;16.61;76.95;93333.53;5101459;28;20010;-43
2021/06/20 00:17:33;;;;;;;6.65;5.90;;;;;;;16.64;76.66;93337.22;5098726;28;20026;-45
2021/06/20 00:19:59;;;;;;;9.90;5.95;;;;;;;16.53;76.35;93327.41;5100763;28;20031;-43
2021/06/20 00:22:24;;;;;;;5.35;4.82;;;;;;;16.38;76.48;93326.97;5100269;28;20102;-45
2021/06/20 00:24:50;;;;;;;5.57;5.13;;;;;;;16.46;75.47;93311.56;5102055;28;20035;-45
2021/06/20 00:27:15;;;;;;;6.00;5.43;;;;;;;16.46;75.57;93302.47;5099176;28;20063;-49
2021/06/20 00:29:41;;;;;;;7.15;6.05;;;;;;;16.44;76.44;93297.47;5099839;28;20023;-45
2021/06/20 00:32:07;;;;;;;7.40;6.38;;;;;;;16.34;77.76;93296.03;5100514;28;20012;-46
2021/06/20 00:34:33;;;;;;;6.20;5.75;;;;;;;16.28;77.48;93301.19;5099408;28;20027;-47
2021/06/20 00:36:58;;;;;;;6.97;6.57;;;;;;;16.22;78.11;93304.28;5101051;28;20026;-46
2021/06/20 00:39:23;;;;;;;6.00;5.60;;;;;;;16.27;77.93;93300.47;5100333;28;20492;-44
2021/06/20 00:41:49;;;;;;;9.77;5.75;;;;;;;16.22;78.18;93309.84;5098196;28;20024;-44
2021/06/20 00:44:14;;;;;;;7.55;6.85;;;;;;;16.35;78.27;93314.25;5111259;28;20740;-44
2021/06/20 00:46:40;;;;;;;7.10;6.22;;;;;;;16.38;77.90;93315.84;5111752;28;20518;-44
2021/06/20 00:49:05;;;;;;;6.75;6.32;;;;;;;16.43;77.91;93307.19;5111290;28;20499;-44
2021/06/20 00:51:30;;;;;;;8.38;6.75;;;;;;;16.39;78.04;93314.53;5111712;28;20035;-45
2021/06/20 00:53:56;;;;;;;6.95;6.25;;;;;;;16.50;77.75;93309.06;5110094;28;20510;-48
2021/06/20 00:56:21;;;;;;;8.20;7.45;;;;;;;16.48;77.85;93311.69;5111211;28;20631;-47
2021/06/20 00:58:47;;;;;;;7.07;6.68;;;;;;;16.40;78.42;93313.91;5111357;28;20024;-44
2021/06/20 01:01:13;;;;;;;7.55;7.10;;;;;;;16.50;77.95;93300.72;5109862;28;20024;-46
2021/06/20 01:03:41;;;;;;;7.65;7.05;;;;;;;16.47;78.16;93296.31;5111304;28;20102;-46
2021/06/20 01:06:07;;;;;;;89.90;14.25;;;;;;;16.53;77.75;93305.13;5111363;28;20016;-45
2021/06/20 01:08:34;;;;;;;10.00;6.18;;;;;;;16.47;77.38;93296.31;5111101;28;20058;-44
2021/06/20 01:10:59;;;;;;;18.20;6.95;;;;;;;16.45;77.92;93301.00;5092589;28;20028;-46
2021/06/20 01:13:25;;;;;;;6.60;6.00;;;;;;;16.44;77.67;93305.84;5090095;28;20028;-47
2021/06/20 01:15:51;;;;;;;6.55;6.25;;;;;;;16.42;77.51;93302.91;5090143;28;20024;-47
2021/06/20 01:18:18;;;;;;;6.57;5.93;;;;;;;16.49;77.54;93304.06;5089982;28;20032;-44
2021/06/20 01:20:44;;;;;;;6.93;6.22;;;;;;;16.51;77.48;93307.75;5101252;28;20031;-43
2021/06/20 01:23:09;;;;;;;6.78;6.38;;;;;;;16.52;77.61;93295.28;5110742;28;20043;-44
2021/06/20 01:25:38;;;;;;;8.13;7.72;;;;;;;16.25;78.59;93302.38;5110761;28;20020;-45
2021/06/20 01:28:08;;;;;;;9.70;9.00;;;;;;;16.20;79.41;93309.00;5111097;28;20035;-47
2021/06/20 01:30:36;;;;;;;8.68;7.85;;;;;;;15.95;79.13;93264.75;5111130;28;20114;-44
2021/06/20 01:33:04;;;;;;;8.82;7.97;;;;;;;16.27;78.99;93303.25;5110647;28;20015;-44
2021/06/20 01:35:29;;;;;;;7.30;6.70;;;;;;;16.31;78.39;93300.00;5110709;28;20049;-44
2021/06/20 01:37:55;;;;;;;6.28;5.78;;;;;;;16.36;77.93;93301.75;5110542;28;20023;-48
2021/06/20 01:40:22;;;;;;;7.47;6.97;;;;;;;16.30;78.41;93296.50;5109993;28;20023;-44
2021/06/20 01:42:48;;;;;;;24.70;9.00;;;;;;;16.30;78.57;93302.06;5099273;28;20024;-44
2021/06/20 01:45:19;;;;;;;8.02;7.32;;;;;;;16.33;78.79;93308.53;5109292;28;20418;-44
2021/06/20 01:47:45;;;;;;;6.63;6.22;;;;;;;16.36;78.30;93310.84;5110415;28;20020;-45
2021/06/20 01:50:14;;;;;;;6.82;6.40;;;;;;;16.39;77.89;93301.31;5109576;28;20015;-44
2021/06/20 01:52:40;;;;;;;7.30;6.57;;;;;;;16.32;77.57;93295.91;5110013;28;20031;-44
2021/06/20 01:55:07;;;;;;;8.52;7.78;;;;;;;16.29;78.41;93300.59;5109540;28;20015;-45
2021/06/20 01:57:35;;;;;;;9.75;8.45;;;;;;;16.21;78.66;93302.09;5102294;28;20026;-46
2021/06/20 02:00:03;;;;;;;6.63;6.03;;;;;;;16.22;78.46;93300.78;5090444;28;20024;-44
2021/06/20 02:02:29;;;;;;;7.57;6.95;;;;;;;16.21;78.36;93302.09;5090328;28;20099;-45
2021/06/20 02:04:55;;;;;;;7.70;5.90;;;;;;;16.16;78.18;93305.91;5089709;28;20085;-45
2021/06/20 02:07:22;;;;;;;7.25;6.55;;;;;;;16.16;77.31;93303.84;5090336;28;20035;-44
2021/06/20 02:09:48;;;;;;;12.77;11.45;;;;;;;16.08;77.74;93306.06;5090304;28;20016;-44
2021/06/20 02:12:15;;;;;;;15.10;11.70;;;;;;;16.09;77.90;93301.94;5089954;28;20524;-46
2021/06/20 02:14:40;;;;;;;12.93;11.77;;;;;;;15.91;79.06;93303.44;5089976;28;20020;-43
2021/06/20 02:17:22;;;;;;;17.75;13.23;;;;;;;15.99;78.86;93297.72;5101882;28;20023;-44
2021/06/20 02:19:47;;;;;;;12.57;11.38;;;;;;;16.04;78.51;93307.84;5110417;28;20024;-47
2021/06/20 02:22:13;;;;;;;11.95;11.02;;;;;;;15.98;79.38;93301.84;5110220;28;20150;-43
2021/06/20 02:24:39;;;;;;;11.30;10.55;;;;;;;15.91;80.14;93298.63;5110278;28;20023;-45
2021/06/20 02:27:05;;;;;;;9.23;8.45;;;;;;;16.05;80.27;93298.88;5091523;28;20031;-45
2021/06/20 02:29:31;;;;;;;9.80;8.88;;;;;;;16.08;79.59;93305.34;5089618;28;20063;-47
2021/06/20 02:31:56;;;;;;;9.73;9.15;;;;;;;16.05;79.66;93296.09;5090034;28;20062;-47
2021/06/20 02:34:22;;;;;;;9.40;8.68;;;;;;;16.01;79.50;93298.59;5089664;28;20111;-46
2021/06/20 02:36:47;;;;;;;9.98;9.38;;;;;;;16.00;79.99;93308.28;5089853;28;20012;-49
2021/06/20 02:39:13;;;;;;;11.13;10.32;;;;;;;16.13;79.58;93307.84;5088596;28;20081;-47
2021/06/20 02:41:38;;;;;;;9.82;9.25;;;;;;;16.10;79.53;93308.25;5089044;28;20016;-49
2021/06/20 02:44:04;;;;;;;11.93;10.85;;;;;;;15.96;80.61;93310.75;5088721;28;20023;-46
2021/06/20 02:46:30;;;;;;;9.98;9.27;;;;;;;16.08;80.24;93308.84;5088770;28;20036;-47
2021/06/20 02:48:55;;;;;;;10.00;9.15;;;;;;;16.11;79.83;93312.53;5088814;28;20025;-45
2021/06/20 02:51:21;;;;;;;10.52;9.77;;;;;;;16.02;80.37;93307.69;5100718;28;20491;-46
2021/06/20 02:53:46;;;;;;;21.98;10.82;;;;;;;15.99;80.60;93304.03;5105838;28;20058;-45
2021/06/20 02:56:12;;;;;;;10.80;9.73;;;;;;;16.06;80.29;93308.72;5112654;28;20016;-44
2021/06/20 02:58:37;;;;;;;10.35;9.52;;;;;;;16.15;80.47;93316.31;5113130;28;20024;-45
2021/06/20 03:01:02;;;;;;;7.55;7.13;;;;;;;16.11;79.71;93318.81;5113043;28;20016;-46
2021/06/20 03:03:28;;;;;;;9.18;8.60;;;;;;;16.19;79.02;93316.63;5112581;28;20041;-45
2021/06/20 03:05:53;;;;;;;7.15;6.65;;;;;;;16.01;78.77;93300.63;5112855;28;20019;-48
2021/06/20 03:08:19;;;;;;;8.20;7.60;;;;;;;16.19;78.48;93319.41;5112738;28;20019;-49
2021/06/20 03:10:44;;;;;;;8.77;7.75;;;;;;;16.14;79.14;93309.28;5112448;28;20023;-47
2021/06/20 03:13:10;;;;;;;8.05;7.55;;;;;;;16.14;78.97;93309.28;5104252;28;20492;-47
2021/06/20 03:15:39;;;;;;;7.45;6.78;;;;;;;16.15;78.74;93315.59;5091986;28;20085;-46
2021/06/20 03:18:05;;;;;;;8.43;7.65;;;;;;;16.20;79.02;93309.00;5092222;28;20043;-46
2021/06/20 03:20:31;;;;;;;7.95;7.22;;;;;;;16.22;78.95;93309.84;5092077;28;20412;-46
2021/06/20 03:22:57;;;;;;;7.82;7.28;;;;;;;16.15;78.84;93307.22;5091903;28;20101;-45
2021/06/20 03:25:22;;;;;;;8.13;7.57;;;;;;;16.21;78.80;93307.66;5092124;28;20146;-45
2021/06/20 03:27:48;;;;;;;6.88;6.38;;;;;;;16.21;78.48;93299.31;5092180;28;20525;-46
2021/06/20 03:30:14;;;;;;;7.07;6.68;;;;;;;16.26;78.45;93310.16;5091626;28;20538;-47
2021/06/20 03:32:40;;;;;;;7.35;6.68;;;;;;;16.28;78.35;93312.34;5092123;28;20028;-46
2021/06/20 03:35:06;;;;;;;8.50;7.80;;;;;;;16.22;78.58;93309.13;5091649;28;20515;-46
2021/06/20 03:37:31;;;;;;;8.88;8.32;;;;;;;16.13;79.25;93307.84;5092019;28;20024;-47
2021/06/20 03:39:56;;;;;;;8.35;7.85;;;;;;;16.22;79.22;93304.28;5091440;28;20027;-47
2021/06/20 03:42:22;;;;;;;10.82;9.75;;;;;;;16.18;79.37;93304.00;5091498;28;20039;-45
2021/06/20 03:44:47;;;;;;;10.40;9.32;;;;;;;16.22;79.30;93317.50;5091443;28;20102;-46
2021/06/20 03:47:13;;;;;;;9.75;9.15;;;;;;;16.17;79.75;93319.25;5091747;28;20035;-47
2021/06/20 03:49:38;;;;;;;10.00;9.00;;;;;;;16.11;79.29;93293.03;5091710;28;20031;-46
2021/06/20 03:52:04;;;;;;;11.80;9.43;;;;;;;16.22;79.46;93315.41;5091315;28;20073;-45
2021/06/20 03:54:31;;;;;;;9.88;9.18;;;;;;;16.13;79.66;93318.97;5102420;28;20051;-45
2021/06/20 03:56:56;;;;;;;10.02;9.32;;;;;;;16.10;79.44;93303.44;5112014;28;20106;-45
2021/06/20 03:59:24;;;;;;;8.48;7.95;;;;;;;16.05;79.30;93301.66;5111690;28;20118;-45
2021/06/20 04:01:49;;;;;;;9.40;8.50;;;;;;;16.00;79.36;93299.19;5111552;28;20063;-44
2021/06/20 04:04:15;;;;;;;8.70;8.13;;;;;;;16.13;79.16;93318.97;5111275;28;20042;-45
2021/06/20 04:06:41;;;;;;;8.05;7.55;;;;;;;16.21;79.07;93313.22;5102648;28;20115;-43
2021/06/20 04:09:07;;;;;;;8.20;7.40;;;;;;;16.22;78.47;93317.50;5099684;28;20103;-44
2021/06/20 04:11:32;;;;;;;8.85;8.25;;;;;;;16.21;78.96;93324.38;5101203;28;20492;-44
2021/06/20 04:13:58;;;;;;;10.10;9.20;;;;;;;16.23;79.38;93321.72;5100423;28;20023;-46
2021/06/20 04:16:23;;;;;;;9.93;8.90;;;;;;;16.27;79.70;93319.97;5099256;28;20556;-42
2021/06/20 04:18:49;;;;;;;8.50;7.90;;;;;;;16.35;79.48;93323.31;5107928;28;20424;-42
2021/06/20 04:21:14;;;;;;;8.98;8.38;;;;;;;16.36;79.81;93326.84;5111024;28;20059;-42
2021/06/20 04:23:39;;;;;;;8.52;8.00;;;;;;;16.35;79.91;93322.59;5092055;28;20052;-45
2021/06/20 04:26:05;;;;;;;8.45;7.78;;;;;;;16.44;79.88;93325.34;5091129;28;20024;-42
2021/06/20 04:28:30;;;;;;;9.93;9.02;;;;;;;16.51;79.54;93323.75;5091254;28;20474;-44
2021/06/20 04:30:57;;;;;;;8.77;8.18;;;;;;;16.67;79.28;93330.47;5090947;28;20016;-46
2021/06/20 04:33:23;;;;;;;9.70;8.80;;;;;;;16.64;79.23;93324.00;5090643;28;20055;-43
2021/06/20 04:35:50;;;;;;;9.52;8.70;;;;;;;16.69;79.26;93325.03;5090919;28;20023;-44
2021/06/20 04:38:16;;;;;;;8.50;7.85;;;;;;;16.68;79.01;93321.50;5090490;28;20027;-46
2021/06/20 04:40:41;;;;;;;7.75;6.88;;;;;;;16.70;78.74;93328.56;5090508;28;20020;-45
2021/06/20 04:43:22;;;;;;;7.90;7.47;;;;;;;16.71;78.89;93338.38;5090384;28;20020;-47
2021/06/20 04:45:47;;;;;;;12.00;8.38;;;;;;;16.77;79.09;93327.63;5090362;28;20024;-46
2021/06/20 04:48:13;;;;;;;8.60;8.10;;;;;;;16.89;79.48;93334.06;5090573;28;20027;-45
2021/06/20 04:50:38;;;;;;;6.97;6.57;;;;;;;16.95;78.98;93326.84;5090145;28;20024;-45
2021/06/20 04:53:03;;;;;;;8.02;7.53;;;;;;;17.00;78.22;93328.56;5090179;28;20024;-46
2021/06/20 04:55:29;;;;;;;8.07;7.47;;;;;;;17.06;78.68;93331.78;5089941;28;20023;-45
2021/06/20 04:57:54;;;;;;;10.48;9.27;;;;;;;17.17;78.71;93331.13;5090412;28;20027;-46
2021/06/20 05:00:20;;;;;;;10.75;7.88;;;;;;;17.26;78.63;93330.34;5088591;28;20687;-48
2021/06/20 05:02:46;;;;;;;6.95;6.55;;;;;;;17.28;78.25;93329.75;5090290;28;20099;-49
2021/06/20 05:05:12;;;;;;;7.32;6.45;;;;;;;17.11;77.55;93313.97;5090305;28;20386;-45
2021/06/20 05:07:37;;;;;;;7.00;6.55;;;;;;;17.34;77.22;93330.91;5089955;28;20096;-48
2021/06/20 05:10:03;;;;;;;7.43;6.95;;;;;;;17.37;77.05;93331.75;5105399;28;20088;-47
2021/06/20 05:12:29;;;;;;;9.40;7.15;;;;;;;17.34;77.33;93332.97;5110544;28;20023;-49
2021/06/20 05:14:54;;;;;;;6.82;6.38;;;;;;;17.43;76.58;93340.53;5102263;28;20089;-48
2021/06/20 05:17:20;;;;;;;6.35;5.95;;;;;;;17.42;76.83;93334.22;5089945;28;20020;-46
2021/06/20 05:19:46;;;;;;;6.55;6.10;;;;;;;17.57;76.51;93341.50;5090080;28;20020;-47
2021/06/20 05:22:12;;;;;;;11.73;5.75;;;;;;;17.67;75.67;93347.75;5089705;28;20024;-49
2021/06/20 05:24:41;;;;;;;5.93;5.53;;;;;;;17.74;75.55;93340.50;5089603;28;20028;-45
2021/06/20 05:27:08;;;;;;;5.28;4.82;;;;;;;17.84;75.59;93343.97;5089798;28;20024;-51
2021/06/20 05:29:33;;;;;;;5.90;5.50;;;;;;;17.90;75.00;93335.97;5089566;28;20046;-46
2021/06/20 05:31:59;;;;;;;18.05;6.43;;;;;;;18.15;74.13;93350.91;5097670;28;20024;-46
2021/06/20 05:34:24;;;;;;;8.55;6.60;;;;;;;18.15;72.64;93339.00;5096896;28;20042;-49
2021/06/20 05:36:50;;;;;;;8.75;6.15;;;;;;;18.24;72.56;93357.75;5098020;28;20055;-44
2021/06/20 05:39:15;;;;;;;5.70;5.20;;;;;;;18.27;72.45;93355.81;5089841;28;20031;-44
2021/06/20 05:41:41;;;;;;;34.28;31.92;;;;;;;18.32;73.02;93346.38;5089827;28;20031;-43
2021/06/20 05:44:06;;;;;;;6.43;6.03;;;;;;;18.37;72.57;93350.88;5089071;28;20024;-46
2021/06/20 05:46:32;;;;;;;5.50;5.20;;;;;;;18.43;71.41;93349.19;5095495;28;20443;-47
2021/06/20 05:48:58;;;;;;;5.95;5.55;;;;;;;18.48;72.23;93350.94;5099579;28;20015;-45
2021/06/20 05:51:23;;;;;;;5.57;5.28;;;;;;;18.48;71.46;93339.03;5099526;28;20020;-46
2021/06/20 05:53:49;;;;;;;5.63;5.22;;;;;;;18.44;70.23;93347.13;5096324;28;20024;-45
2021/06/20 05:56:14;;;;;;;5.60;5.30;;;;;;;18.33;70.60;93340.19;5089486;28;20028;-46
2021/06/20 05:58:40;;;;;;;5.85;5.45;;;;;;;18.31;70.99;93333.72;5089654;28;20522;-46
2021/06/20 06:01:05;;;;;;;10.90;10.20;;;;;;;18.37;69.57;93340.44;5089241;28;20603;-44
2021/06/20 06:03:32;;;;;;;5.72;5.22;;;;;;;18.43;70.62;93329.63;5098769;28;20490;-46
2021/06/20 06:05:58;;;;;;;5.35;4.85;;;;;;;18.51;70.95;93332.97;5095880;28;20024;-47
2021/06/20 06:08:23;;;;;;;6.60;6.03;;;;;;;18.48;69.17;93341.81;5100035;28;20042;-43
2021/06/20 06:10:49;;;;;;;6.70;6.10;;;;;;;18.50;70.76;93333.56;5098643;28;20023;-45
2021/06/20 06:13:14;;;;;;;6.80;6.20;;;;;;;18.52;69.61;93337.22;5099081;28;20024;-44
2021/06/20 06:15:40;;;;;;;10.77;8.40;;;;;;;18.49;68.64;93332.84;5097073;28;20016;-47
2021/06/20 06:18:05;;;;;;;15.80;12.52;;;;;;;18.48;69.41;93328.59;5094653;28;20082;-45
2021/06/20 06:20:31;;;;;;;10.57;9.48;;;;;;;18.58;69.33;93328.50;5098273;28;20047;-44
2021/06/20 06:22:57;;;;;;;27.23;20.88;;;;;;;18.59;70.21;93313.91;5098675;28;20044;-47
2021/06/20 06:25:22;;;;;;;11.05;8.68;;;;;;;18.73;70.04;93325.94;5099540;28;20023;-45
2021/06/20 06:27:48;;;;;;;6.65;6.20;;;;;;;18.81;68.57;93328.53;5098405;28;20507;-43
2021/06/20 06:30:14;;;;;;;5.85;5.55;;;;;;;18.91;68.32;93331.94;5102456;28;20024;-44
2021/06/20 06:32:42;;;;;;;4.50;4.30;;;;;;;19.06;66.24;93336.34;5103974;28;20034;-44
2021/06/20 06:35:08;;;;;;;5.07;4.78;;;;;;;19.13;66.63;93330.50;5111351;28;20019;-48
2021/06/20 06:37:34;;;;;;;5.57;5.28;;;;;;;19.09;66.56;93335.84;5113683;28;20062;-44
2021/06/20 06:40:00;;;;;;;4.90;4.53;;;;;;;19.15;66.18;93321.50;5112993;28;20035;-45
2021/06/20 06:42:26;;;;;;;5.05;4.75;;;;;;;19.27;66.02;93322.22;5113372;28;20028;-47
2021/06/20 06:44:56;;;;;;;5.25;4.85;;;;;;;19.30;66.46;93327.34;5112938;28;20076;-45
2021/06/20 06:47:22;;;;;;;4.75;4.45;;;;;;;19.27;65.89;93319.44;5112000;28;20034;-44
2021/06/20 06:49:48;;;;;;;6.30;5.80;;;;;;;19.31;65.67;93314.81;5093089;28;20089;-47
2021/06/20 06:52:14;;;;;;;6.20;5.78;;;;;;;19.39;65.05;93315.31;5092866;28;20532;-48
2021/06/20 06:54:39;;;;;;;5.25;4.85;;;;;;;19.48;64.78;93311.66;5104630;28;20016;-47
2021/06/20 06:57:05;;;;;;;8.00;4.70;;;;;;;19.55;65.74;93304.34;5112965;28;20020;-46
2021/06/20 06:59:31;;;;;;;4.15;3.90;;;;;;;19.75;64.41;93310.38;5113141;28;20023;-44
2021/06/20 07:01:56;;;;;;;4.70;4.50;;;;;;;19.78;64.07;93303.53;5102133;28;20032;-47
2021/06/20 07:04:22;;;;;;;5.40;5.10;;;;;;;19.80;64.31;93307.19;5092140;28;20024;-45
2021/06/20 07:06:48;;;;;;;4.22;3.95;;;;;;;19.89;62.46;93300.72;5092429;28;20450;-47
2021/06/20 07:09:13;;;;;;;5.57;5.20;;;;;;;20.01;62.98;93301.41;5102752;28;20408;-44
2021/06/20 07:11:39;;;;;;;14.15;12.68;;;;;;;20.23;63.31;93304.75;5090176;28;20027;-44
2021/06/20 07:14:04;;;;;;;4.75;4.35;;;;;;;20.35;62.11;93313.84;5092380;28;20028;-45
2021/06/20 07:16:30;;;;;;;5.43;3.70;;;;;;;20.31;59.47;93311.53;5099226;28;20024;-47
2021/06/20 07:18:55;;;;;;;6.85;4.43;;;;;;;20.32;60.97;93315.81;5089938;28;20039;-48
2021/06/20 07:21:21;;;;;;;3.42;3.22;;;;;;;20.34;61.18;93313.13;5089775;28;20532;-47
2021/06/20 07:23:46;;;;;;;5.53;5.13;;;;;;;20.45;62.05;93320.00;5089269;28;20048;-45
2021/06/20 07:26:12;;;;;;;4.25;3.95;;;;;;;20.48;61.16;93315.25;5088855;28;20031;-45
2021/06/20 07:28:38;;;;;;;4.00;3.70;;;;;;;20.32;60.44;93309.47;5098269;28;20020;-45
2021/06/20 07:31:04;;;;;;;4.35;3.95;;;;;;;20.35;60.73;93305.44;5093488;28;20031;-46
2021/06/20 07:33:30;;;;;;;5.22;4.90;;;;;;;20.18;62.33;93314.28;5109917;27;20353;-45
2021/06/20 07:35:57;;;;;;;3.83;3.63;;;;;;;20.28;61.32;93312.78;5109665;28;20024;-44
2021/06/20 07:38:23;;;;;;;4.47;4.07;;;;;;;20.29;61.26;93305.81;5107276;28;20415;-49
2021/06/20 07:40:49;;;;;;;4.95;4.65;;;;;;;20.48;62.28;93309.63;5103451;28;20020;-46
2021/06/20 07:43:14;;;;;;;4.90;4.60;;;;;;;20.62;62.19;93322.38;5099889;28;20032;-48
2021/06/20 07:45:40;;;;;;;3.22;3.13;;;;;;;20.79;60.44;93304.34;5101584;28;20031;-46
2021/06/20 07:48:07;;;;;;;2.72;2.63;;;;;;;21.00;60.50;93309.69;5109608;28;20465;-47
2021/06/20 07:50:33;;;;;;;2.75;2.60;;;;;;;21.13;57.91;93294.97;5109869;28;20103;-46
2021/06/20 07:52:58;;;;;;;3.15;3.00;;;;;;;21.31;57.94;93303.63;5109900;28;20028;-45
2021/06/20 07:55:24;;;;;;;2.40;2.30;;;;;;;21.37;57.01;93295.50;5108928;28;20019;-47
2021/06/20 07:57:49;;;;;;;2.58;2.47;;;;;;;21.54;58.43;93306.22;5099634;28;20036;-48
2021/06/20 08:00:15;;;;;;;2.95;2.80;;;;;;;21.54;56.81;93306.22;5089245;28;20024;-48
2021/06/20 08:02:42;;;;;;;2.65;2.40;;;;;;;21.55;57.36;93308.41;5089426;28;20031;-45
2021/06/20 08:05:08;;;;;;;20.67;19.00;;;;;;;21.61;55.72;93305.88;5091507;28;20015;-45
2021/06/20 08:07:36;;;;;;;4.32;2.58;;;;;;;21.64;56.67;93312.34;5108399;28;20038;-45
2021/06/20 08:10:03;;;;;;;4.30;2.67;;;;;;;21.68;55.57;93313.28;5107150;28;20105;-45
2021/06/20 08:12:29;;;;;;;2.75;2.45;;;;;;;21.50;56.26;93297.59;5107820;28;20051;-44
2021/06/20 08:14:55;;;;;;;2.28;2.15;;;;;;;21.63;56.29;93302.47;5108176;28;20070;-47
2021/06/20 08:17:21;;;;;;;2.60;2.40;;;;;;;21.91;56.39;93306.72;5108508;28;20034;-45
2021/06/20 08:19:47;;;;;;;2.50;2.30;;;;;;;22.06;56.36;93311.69;5107816;28;20431;-46
2021/06/20 08:22:12;;;;;;;2.20;2.10;;;;;;;22.11;55.04;93304.91;5107323;28;20038;-44
2021/06/20 08:24:38;;;;;;;2.05;1.95;;;;;;;22.17;55.74;93310.84;5109510;28;20024;-46
2021/06/20 08:27:05;;;;;;;7.18;2.83;;;;;;;22.42;56.10;93302.22;5103169;28;20059;-45
2021/06/20 08:29:31;;;;;;;1.90;1.80;;;;;;;22.67;55.01;93303.38;5091561;28;20114;-47
2021/06/20 08:31:57;;;;;;;2.25;2.05;;;;;;;22.91;52.96;93315.78;5087211;28;20031;-46
2021/06/20 08:34:22;;;;;;;1.77;1.67;;;;;;;22.72;52.20;93305.03;5088255;28;20135;-47
2021/06/20 08:36:48;;;;;;;2.05;1.50;;;;;;;22.72;52.50;93321.94;5088726;28;20099;-45
2021/06/20 08:39:14;;;;;;;2.13;1.92;;;;;;;22.42;53.43;93310.66;5088507;28;20043;-46
2021/06/20 08:41:43;;;;;;;1.98;1.88;;;;;;;22.28;52.55;93318.41;5092940;28;20084;-46
2021/06/20 08:44:25;;;;;;;2.10;2.00;;;;;;;22.47;55.29;93326.38;5104038;28;20152;-48
2021/06/20 08:46:51;;;;;;;2.25;2.15;;;;;;;22.59;54.52;93312.16;5109445;28;20065;-45
2021/06/20 08:49:17;;;;;;;1.98;1.88;;;;;;;22.63;53.83;93321.53;5108756;28;20531;-48
2021/06/20 08:51:46;;;;;;;4.65;1.98;;;;;;;22.63;53.37;93323.63;5095964;28;20043;-45
2021/06/20 08:54:11;;;;;;;;;;;;;;;22.58;52.87;93317.06;5088487;28;20503;-46
2021/06/20 08:56:37;;;;;;;1.98;1.88;;;;;;;22.57;53.64;93328.94;5088414;28;20000;-46
2021/06/20 08:59:06;;;;;;;2.03;1.92;;;;;;;22.56;54.13;93325.41;5087167;28;20047;-47
2021/06/20 09:01:34;;;;;;;2.00;1.90;;;;;;;22.63;53.70;93317.28;5088345;28;20503;-45
2021/06/20 09:04:00;;;;;;;2.22;1.95;;;;;;;22.69;53.54;93318.28;5088527;28;20024;-44
2021/06/20 09:06:26;;;;;;;2.67;1.75;;;;;;;22.72;54.01;93327.56;5088445;28;20035;-47
2021/06/20 09:08:54;;;;;;;2.08;1.75;;;;;;;22.68;54.27;93325.28;5088613;28;20075;-45
2021/06/20 09:11:33;;;;;;;2.20;2.00;;;;;;;22.90;54.03;93317.13;5088743;28;20035;-45
2021/06/20 09:14:09;;;;;;;1.95;1.85;;;;;;;23.07;52.94;93311.63;5100398;28;20032;-42
2021/06/20 09:16:36;;;;;;;1.60;1.50;;;;;;;23.52;51.63;93308.72;5101341;28;20039;-47
2021/06/20 09:19:01;;;;;;;3.13;1.70;;;;;;;24.30;51.11;93308.53;5090234;28;20028;-50
2021/06/20 09:21:27;;;;;;;1.38;1.30;;;;;;;24.79;47.94;93311.97;5090081;28;20024;-47
2021/06/20 09:23:57;;;;;;;3.58;1.17;;;;;;;25.75;46.33;93304.97;5089685;28;20135;-46
2021/06/20 09:26:37;;;;;;;2.88;1.48;;;;;;;26.44;42.73;93305.97;5089744;28;20031;-45
2021/06/20 09:29:03;;;;;;;1.33;1.23;;;;;;;26.68;43.09;93303.19;5105586;28;20038;-43
2021/06/20 09:31:50;;;;;;;1.42;1.33;;;;;;;26.70;42.21;93306.81;5086562;28;20042;-44
2021/06/20 09:34:16;;;;;;;3.28;1.63;;;;;;;26.61;43.67;93315.69;5086498;28;20036;-41
2021/06/20 09:36:42;;;;;;;1.50;1.38;;;;;;;26.59;41.98;93309.97;5085775;28;20024;-43
2021/06/20 09:50:41;;;;;;;3.17;1.35;;;;;;;29.70;37.12;93297.06;5125324;27;20925;-42
2021/06/20 09:53:07;;;;;;;2.55;1.48;;;;;;;29.88;37.60;93306.72;5126055;27;20557;-41
2021/06/20 09:55:33;;;;;;;2.15;1.20;;;;;;;29.59;37.11;93293.28;5117962;27;20466;-42
2021/06/20 09:58:01;;;;;;;2.28;1.17;;;;;;;29.91;37.38;93288.25;5103948;28;20020;-42
2021/06/20 10:00:35;;;;;;;1.15;1.02;;;;;;;30.20;36.19;93277.41;5104606;28;20028;-46
2021/06/20 10:03:01;;;;;;;1.10;1.10;;;;;;;30.53;35.54;93280.19;5120742;28;20048;-42
2021/06/20 10:05:26;;;;;;;1.40;1.30;;;;;;;30.76;35.06;93278.41;5124836;28;20111;-47
2021/06/20 10:07:52;;;;;;;2.22;1.27;;;;;;;30.59;34.62;93280.28;5124747;28;20119;-44
2021/06/20 10:10:17;;;;;;;1.60;1.50;;;;;;;30.27;36.00;93281.81;5124931;27;20027;-43
2021/06/20 10:12:43;;;;;;;1.58;1.48;;;;;;;30.59;36.80;93271.00;5125060;28;20024;-44
2021/06/20 10:15:13;;;;;;;1.27;1.27;;;;;;;30.58;34.17;93269.56;5124823;27;20458;-44
2021/06/20 10:17:42;;;;;;;1.60;1.50;;;;;;;30.89;33.91;93265.81;5124904;27;20434;-45
2021/06/20 10:20:08;;;;;;;;;;;;;;;31.29;34.75;93263.56;5125320;27;20558;-44
2021/06/20 10:22:43;;;;;;;1.60;1.38;;;;;;;31.53;33.19;93268.19;5124685;27;19926;-44
2021/06/20 10:25:24;;;;;;;1.73;1.50;;;;;;;31.07;32.05;93276.78;5124933;27;20019;-44
2021/06/20 10:28:01;;;;;;;2.00;1.40;;;;;;;31.09;32.70;93274.69;5124773;28;20511;-45
2021/06/20 10:30:28;;;;;;;2.38;1.48;;;;;;;31.12;32.44;93272.56;5124774;27;20862;-44
2021/06/20 10:33:06;;;;;;;1.30;1.20;;;;;;;31.08;33.49;93263.97;5124666;27;20058;-43
2021/06/20 10:35:32;;;;;;;1.98;1.40;;;;;;;31.63;31.23;93259.72;5124916;27;20392;-44
2021/06/20 10:37:57;;;;;;;9.63;2.78;;;;;;;31.50;33.64;93256.00;5124469;27;20062;-44
2021/06/20 10:40:29;;;;;;;1.55;1.45;;;;;;;31.61;33.25;93256.84;5124663;28;20030;-46
2021/06/20 10:42:56;;;;;;;2.17;1.50;;;;;;;31.93;31.76;93257.97;5125050;28;20458;-43
2021/06/20 10:45:48;;;;;;;1.67;1.40;;;;;;;31.82;32.76;93247.84;5124831;28;20023;-43
2021/06/20 10:48:22;;;;;;;1.42;1.33;;;;;;;31.51;31.71;93254.59;5121618;27;20100;-43
2021/06/20 10:50:50;;;;;;;1.40;1.30;;;;;;;30.74;33.39;93252.72;5109593;27;20137;-45
2021/06/20 10:53:16;;;;;;;1.65;1.55;;;;;;;30.21;33.85;93244.69;5110037;28;20023;-45
2021/06/20 10:55:53;;;;;;;1.88;1.55;;;;;;;29.80;34.38;93237.53;5112490;28;20057;-43
2021/06/20 10:58:27;;;;;;;1.40;1.17;;;;;;;29.79;35.17;93236.06;5112797;28;20027;-45
2021/06/20 11:01:11;;;;;;;1.73;1.63;;;;;;;30.18;36.07;93237.50;5112504;28;20098;-45
2021/06/20 11:03:38;;;;;;;2.80;1.50;;;;;;;30.01;36.78;93238.63;5104403;28;20118;-43
2021/06/20 11:06:11;;;;;;;2.80;1.30;;;;;;;30.27;36.04;93228.44;5112019;28;20038;-45
2021/06/20 11:09:00;;;;;;;3.03;2.08;;;;;;;29.74;36.50;93228.84;5111632;28;20024;-43
2021/06/20 11:11:47;;;;;;;2.22;2.03;;;;;;;29.64;36.38;93223.69;5111763;28;20024;-43
2021/06/20 11:14:12;;;;;;;1.73;1.60;;;;;;;29.51;37.37;93226.97;5110945;28;20077;-46
2021/06/20 11:16:40;;;;;;;1.73;1.63;;;;;;;29.05;38.83;93216.03;5112438;28;20023;-44
2021/06/20 11:19:21;;;;;;;1.50;1.40;;;;;;;28.81;38.45;93221.19;5111936;28;20028;-48
2021/06/20 11:22:01;;;;;;;1.63;1.52;;;;;;;28.53;37.52;93221.22;5112006;28;20495;-47
2021/06/20 11:24:37;;;;;;;4.32;1.70;;;;;;;28.39;40.36;93223.72;5111362;28;20027;-43
2021/06/20 11:27:09;;;;;;;1.63;1.52;;;;;;;28.25;39.11;93225.50;5105667;28;20028;-43
2021/06/20 11:29:53;;;;;;;2.05;1.85;;;;;;;28.29;39.58;93217.81;5110724;28;20027;-43
2021/06/20 11:32:21;;;;;;;1.90;1.73;;;;;;;27.99;40.22;93208.53;5110784;28;20020;-43
2021/06/20 11:34:50;;;;;;;1.98;1.80;;;;;;;28.10;40.16;93218.03;5110119;28;20020;-43
2021/06/20 11:37:37;;;;;;;1.70;1.60;;;;;;;28.04;41.56;93210.09;5111844;28;20036;-44
2021/06/20 11:40:10;;;;;;;1.80;1.70;;;;;;;28.01;40.95;93208.59;5110966;28;20028;-42
2021/06/20 11:42:38;;;;;;;1.60;1.50;;;;;;;27.81;40.77;93210.84;5111706;28;20027;-41